sensor_id;sensor_type;location;lat;lon;timestamp;temperature;humidity
70593;DHT22;58294;42.988;20.338;2023-01-04T00:01:15;102.90;2099.20
70593;DHT22;58294;42.988;20.338;2023-01-04T00:03:42;102.90;2099.20
70593;DHT22;58294;42.988;20.338;2023-01-04T00:06:10;102.90;2073.60
70593;DHT22;58294;42.988;20.338;2023-01-04T00:08:36;103.00;2099.20
70593;DHT22;58294;42.988;20.338;2023-01-04T00:11:07;103.00;2048.00
70593;DHT22;58294;42.988;20.338;2023-01-04T00:13:34;103.00;2073.60
70593;DHT22;58294;42.988;20.338;2023-01-04T00:16:04;102.90;2048.00
70593;DHT22;58294;42.988;20.338;2023-01-04T00:18:32;102.80;2048.00
70593;DHT22;58294;42.988;20.338;2023-01-04T00:23:46;102.80;2022.40
70593;DHT22;58294;42.988;20.338;2023-01-04T00:26:16;102.80;2124.80
70593;DHT22;58294;42.988;20.338;2023-01-04T00:28:44;102.90;2124.80
70593;DHT22;58294;42.988;20.338;2023-01-04T00:31:11;102.90;2099.20
70593;DHT22;58294;42.988;20.338;2023-01-04T00:33:37;103.00;2124.80
70593;DHT22;58294;42.988;20.338;2023-01-04T00:36:08;103.00;2099.20
70593;DHT22;58294;42.988;20.338;2023-01-04T00:38:35;103.00;2124.80
70593;DHT22;58294;42.988;20.338;2023-01-04T00:41:01;103.10;2124.80
70593;DHT22;58294;42.988;20.338;2023-01-04T00:43:28;103.10;2099.20
70593;DHT22;58294;42.988;20.338;2023-01-04T00:45:54;103.10;2099.20
70593;DHT22;58294;42.988;20.338;2023-01-04T00:48:20;103.10;2073.60
70593;DHT22;58294;42.988;20.338;2023-01-04T00:50:48;103.10;2099.20
70593;DHT22;58294;42.988;20.338;2023-01-04T00:53:14;103.00;2048.00
70593;DHT22;58294;42.988;20.338;2023-01-04T00:55:40;103.00;2073.60
70593;DHT22;58294;42.988;20.338;2023-01-04T00:58:06;103.00;2099.20
70593;DHT22;58294;42.988;20.338;2023-01-04T01:00:33;103.00;2099.20
70593;DHT22;58294;42.988;20.338;2023-01-04T01:02:59;103.00;2099.20
70593;DHT22;58294;42.988;20.338;2023-01-04T01:05:25;103.10;2099.20
70593;DHT22;58294;42.988;20.338;2023-01-04T01:07:51;103.20;2099.20
70593;DHT22;58294;42.988;20.338;2023-01-04T01:10:16;103.20;2099.20
70593;DHT22;58294;42.988;20.338;2023-01-04T01:12:42;103.20;2099.20
70593;DHT22;58294;42.988;20.338;2023-01-04T01:15:09;103.30;2099.20
70593;DHT22;58294;42.988;20.338;2023-01-04T01:17:35;103.30;2073.60
70593;DHT22;58294;42.988;20.338;2023-01-04T01:20:02;103.30;2073.60
70593;DHT22;58294;42.988;20.338;2023-01-04T01:22:30;103.30;2073.60
70593;DHT22;58294;42.988;20.338;2023-01-04T01:24:56;103.30;2073.60
70593;DHT22;58294;42.988;20.338;2023-01-04T01:27:21;103.20;2073.60
70593;DHT22;58294;42.988;20.338;2023-01-04T01:29:47;103.30;2099.20
70593;DHT22;58294;42.988;20.338;2023-01-04T01:32:13;103.30;2073.60
70593;DHT22;58294;42.988;20.338;2023-01-04T01:34:39;103.30;2073.60
70593;DHT22;58294;42.988;20.338;2023-01-04T01:37:04;103.30;2073.60
70593;DHT22;58294;42.988;20.338;2023-01-04T01:39:30;103.30;2073.60
70593;DHT22;58294;42.988;20.338;2023-01-04T01:41:56;103.30;2099.20
70593;DHT22;58294;42.988;20.338;2023-01-04T01:47:17;128.00;2124.80
70593;DHT22;58294;42.988;20.338;2023-01-04T01:49:46;128.00;2150.40
70593;DHT22;58294;42.988;20.338;2023-01-04T01:52:17;128.10;2124.80
70593;DHT22;58294;42.988;20.338;2023-01-04T01:54:48;128.10;2124.80
70593;DHT22;58294;42.988;20.338;2023-01-04T01:57:21;128.10;2124.80
70593;DHT22;58294;42.988;20.338;2023-01-04T01:59:51;128.20;2150.40
70593;DHT22;58294;42.988;20.338;2023-01-04T02:02:18;128.20;2099.20
70593;DHT22;58294;42.988;20.338;2023-01-04T02:04:47;128.10;2099.20
70593;DHT22;58294;42.988;20.338;2023-01-04T02:07:21;128.00;2124.80
70593;DHT22;58294;42.988;20.338;2023-01-04T02:09:49;128.10;2124.80
70593;DHT22;58294;42.988;20.338;2023-01-04T02:12:15;128.20;2124.80
70593;DHT22;58294;42.988;20.338;2023-01-04T02:14:43;128.20;2150.40
70593;DHT22;58294;42.988;20.338;2023-01-04T02:17:22;128.30;2150.40
70593;DHT22;58294;42.988;20.338;2023-01-04T02:20:14;128.30;2150.40
70593;DHT22;58294;42.988;20.338;2023-01-04T02:30:58;128.30;2150.40
70593;DHT22;58294;42.988;20.338;2023-01-04T02:34:24;128.30;2099.20
70593;DHT22;58294;42.988;20.338;2023-01-04T02:42:03;128.40;2099.20
70593;DHT22;58294;42.988;20.338;2023-01-04T02:44:45;128.40;2150.40
70593;DHT22;58294;42.988;20.338;2023-01-04T02:50:24;128.40;2176.00
70593;DHT22;58294;42.988;20.338;2023-01-04T02:53:09;128.50;2150.40
70593;DHT22;58294;42.988;20.338;2023-01-04T02:56:05;128.50;2150.40
70593;DHT22;58294;42.988;20.338;2023-01-04T03:01:38;128.50;2099.20
70593;DHT22;58294;42.988;20.338;2023-01-04T03:10:52;128.60;2124.80
70593;DHT22;58294;42.988;20.338;2023-01-04T03:13:28;128.50;2099.20
70593;DHT22;58294;42.988;20.338;2023-01-04T03:16:07;128.60;2150.40
70593;DHT22;58294;42.988;20.338;2023-01-04T03:18:42;128.60;2150.40
70593;DHT22;58294;42.988;20.338;2023-01-04T03:21:10;128.50;2073.60
70593;DHT22;58294;42.988;20.338;2023-01-04T03:23:38;128.50;2124.80
70593;DHT22;58294;42.988;20.338;2023-01-04T03:26:27;128.60;2124.80
70593;DHT22;58294;42.988;20.338;2023-01-04T03:30:02;128.60;2150.40
70593;DHT22;58294;42.988;20.338;2023-01-04T03:32:45;128.60;2176.00
70593;DHT22;58294;42.988;20.338;2023-01-04T03:35:39;128.70;2150.40
70593;DHT22;58294;42.988;20.338;2023-01-04T03:41:57;128.80;2150.40
70593;DHT22;58294;42.988;20.338;2023-01-04T03:47:53;128.90;2150.40
70593;DHT22;58294;42.988;20.338;2023-01-04T03:50:43;153.60;2150.40
70593;DHT22;58294;42.988;20.338;2023-01-04T03:53:11;153.60;2124.80
70593;DHT22;58294;42.988;20.338;2023-01-04T03:55:38;153.60;2124.80
70593;DHT22;58294;42.988;20.338;2023-01-04T03:58:06;153.60;2124.80
70593;DHT22;58294;42.988;20.338;2023-01-04T04:00:32;153.60;2124.80
70593;DHT22;58294;42.988;20.338;2023-01-04T04:02:58;153.60;2073.60
70593;DHT22;58294;42.988;20.338;2023-01-04T04:05:42;128.90;2099.20
70593;DHT22;58294;42.988;20.338;2023-01-04T04:08:27;128.90;2124.80
70593;DHT22;58294;42.988;20.338;2023-01-04T04:10:58;128.90;2150.40
70593;DHT22;58294;42.988;20.338;2023-01-04T04:13:45;153.60;2150.40
70593;DHT22;58294;42.988;20.338;2023-01-04T04:16:11;128.90;2099.20
70593;DHT22;58294;42.988;20.338;2023-01-04T04:18:37;128.90;2150.40
70593;DHT22;58294;42.988;20.338;2023-01-04T04:21:03;153.60;2176.00
70593;DHT22;58294;42.988;20.338;2023-01-04T04:23:29;153.70;2150.40
70593;DHT22;58294;42.988;20.338;2023-01-04T04:25:54;153.70;2150.40
70593;DHT22;58294;42.988;20.338;2023-01-04T04:28:20;153.70;2150.40
70593;DHT22;58294;42.988;20.338;2023-01-04T04:30:48;153.80;2124.80
70593;DHT22;58294;42.988;20.338;2023-01-04T04:33:14;153.80;2150.40
70593;DHT22;58294;42.988;20.338;2023-01-04T04:35:40;153.90;2124.80
70593;DHT22;58294;42.988;20.338;2023-01-04T04:38:06;153.90;2124.80
70593;DHT22;58294;42.988;20.338;2023-01-04T04:40:31;153.90;2124.80
70593;DHT22;58294;42.988;20.338;2023-01-04T04:43:15;153.90;2099.20
70593;DHT22;58294;42.988;20.338;2023-01-04T04:45:41;153.70;2048.00
70593;DHT22;58294;42.988;20.338;2023-01-04T04:48:07;153.70;2124.80
70593;DHT22;58294;42.988;20.338;2023-01-04T04:50:33;153.80;2150.40
70593;DHT22;58294;42.988;20.338;2023-01-04T04:52:58;153.80;2124.80
70593;DHT22;58294;42.988;20.338;2023-01-04T04:55:24;153.80;2150.40
70593;DHT22;58294;42.988;20.338;2023-01-04T04:57:50;153.90;2150.40
70593;DHT22;58294;42.988;20.338;2023-01-04T05:00:16;153.90;2099.20
70593;DHT22;58294;42.988;20.338;2023-01-04T05:02:41;153.70;2073.60
70593;DHT22;58294;42.988;20.338;2023-01-04T05:05:07;153.70;2124.80
70593;DHT22;58294;42.988;20.338;2023-01-04T05:07:33;153.80;2124.80
70593;DHT22;58294;42.988;20.338;2023-01-04T05:09:59;153.90;2150.40
70593;DHT22;58294;42.988;20.338;2023-01-04T05:12:25;153.90;2150.40
70593;DHT22;58294;42.988;20.338;2023-01-04T05:15:09;153.90;2124.80
70593;DHT22;58294;42.988;20.338;2023-01-04T05:17:35;153.90;2124.80
70593;DHT22;58294;42.988;20.338;2023-01-04T05:20:03;154.00;2124.80
70593;DHT22;58294;42.988;20.338;2023-01-04T05:22:29;154.00;2124.80
70593;DHT22;58294;42.988;20.338;2023-01-04T05:24:55;153.90;2099.20
70593;DHT22;58294;42.988;20.338;2023-01-04T05:27:20;153.90;2073.60
70593;DHT22;58294;42.988;20.338;2023-01-04T05:29:46;153.70;2073.60
70593;DHT22;58294;42.988;20.338;2023-01-04T05:32:30;153.80;2150.40
70593;DHT22;58294;42.988;20.338;2023-01-04T05:34:56;153.90;2150.40
70593;DHT22;58294;42.988;20.338;2023-01-04T05:37:21;153.90;2124.80
70593;DHT22;58294;42.988;20.338;2023-01-04T05:39:47;153.90;2150.40
70593;DHT22;58294;42.988;20.338;2023-01-04T05:42:13;153.90;2150.40
70593;DHT22;58294;42.988;20.338;2023-01-04T05:44:51;154.00;2150.40
70593;DHT22;58294;42.988;20.338;2023-01-04T05:47:17;154.00;2150.40
70593;DHT22;58294;42.988;20.338;2023-01-04T05:49:43;154.00;2124.80
70593;DHT22;58294;42.988;20.338;2023-01-04T05:52:09;154.00;2124.80
70593;DHT22;58294;42.988;20.338;2023-01-04T05:54:35;154.00;2124.80
70593;DHT22;58294;42.988;20.338;2023-01-04T05:57:00;153.90;2124.80
70593;DHT22;58294;42.988;20.338;2023-01-04T05:59:26;153.80;2099.20
70593;DHT22;58294;42.988;20.338;2023-01-04T06:01:52;153.80;2124.80
70593;DHT22;58294;42.988;20.338;2023-01-04T06:04:18;153.70;2124.80
70593;DHT22;58294;42.988;20.338;2023-01-04T06:06:45;153.70;2124.80
70593;DHT22;58294;42.988;20.338;2023-01-04T06:09:10;153.70;2150.40
70593;DHT22;58294;42.988;20.338;2023-01-04T06:11:36;153.70;2124.80
70593;DHT22;58294;42.988;20.338;2023-01-04T06:14:02;153.60;2150.40
70593;DHT22;58294;42.988;20.338;2023-01-04T06:16:28;153.70;2150.40
70593;DHT22;58294;42.988;20.338;2023-01-04T06:18:53;153.70;2150.40
70593;DHT22;58294;42.988;20.338;2023-01-04T06:21:19;153.70;2176.00
70593;DHT22;58294;42.988;20.338;2023-01-04T06:23:45;153.70;2150.40
70593;DHT22;58294;42.988;20.338;2023-01-04T06:26:11;153.70;2176.00
70593;DHT22;58294;42.988;20.338;2023-01-04T06:28:36;153.70;2150.40
70593;DHT22;58294;42.988;20.338;2023-01-04T06:31:06;153.70;2150.40
70593;DHT22;58294;42.988;20.338;2023-01-04T06:33:33;153.70;2150.40
70593;DHT22;58294;42.988;20.338;2023-01-04T06:35:59;153.70;2150.40
70593;DHT22;58294;42.988;20.338;2023-01-04T06:38:25;153.70;2150.40
70593;DHT22;58294;42.988;20.338;2023-01-04T06:40:51;153.70;2124.80
70593;DHT22;58294;42.988;20.338;2023-01-04T06:43:17;153.60;2124.80
70593;DHT22;58294;42.988;20.338;2023-01-04T06:45:43;153.60;2176.00
70593;DHT22;58294;42.988;20.338;2023-01-04T06:48:08;153.60;2150.40
70593;DHT22;58294;42.988;20.338;2023-01-04T06:50:34;128.90;2150.40
70593;DHT22;58294;42.988;20.338;2023-01-04T06:53:00;128.90;2150.40
70593;DHT22;58294;42.988;20.338;2023-01-04T06:55:26;128.90;2176.00
70593;DHT22;58294;42.988;20.338;2023-01-04T06:57:54;153.60;2227.20
70593;DHT22;58294;42.988;20.338;2023-01-04T07:00:20;153.70;2227.20
70593;DHT22;58294;42.988;20.338;2023-01-04T07:02:46;153.90;2227.20
70593;DHT22;58294;42.988;20.338;2023-01-04T07:05:12;153.90;2227.20
70593;DHT22;58294;42.988;20.338;2023-01-04T07:07:38;154.00;2227.20
70593;DHT22;58294;42.988;20.338;2023-01-04T07:10:04;154.10;2201.60
70593;DHT22;58294;42.988;20.338;2023-01-04T07:12:31;154.20;2201.60
70593;DHT22;58294;42.988;20.338;2023-01-04T07:14:56;154.20;2201.60
70593;DHT22;58294;42.988;20.338;2023-01-04T07:17:23;154.20;2201.60
70593;DHT22;58294;42.988;20.338;2023-01-04T07:19:48;154.30;2201.60
70593;DHT22;58294;42.988;20.338;2023-01-04T07:22:14;154.30;2176.00
70593;DHT22;58294;42.988;20.338;2023-01-04T07:24:40;154.30;2176.00
70593;DHT22;58294;42.988;20.338;2023-01-04T07:27:11;154.30;2176.00
70593;DHT22;58294;42.988;20.338;2023-01-04T07:29:37;154.20;2099.20
70593;DHT22;58294;42.988;20.338;2023-01-04T07:32:03;154.10;2099.20
70593;DHT22;58294;42.988;20.338;2023-01-04T07:34:29;154.00;2150.40
70593;DHT22;58294;42.988;20.338;2023-01-04T07:36:56;154.00;2124.80
70593;DHT22;58294;42.988;20.338;2023-01-04T07:39:21;153.90;2150.40
70593;DHT22;58294;42.988;20.338;2023-01-04T07:41:48;153.90;2201.60
70593;DHT22;58294;42.988;20.338;2023-01-04T07:44:15;153.90;2227.20
70593;DHT22;58294;42.988;20.338;2023-01-04T07:46:42;154.20;2252.80
70593;DHT22;58294;42.988;20.338;2023-01-04T07:49:14;154.30;2252.80
70593;DHT22;58294;42.988;20.338;2023-01-04T07:51:40;154.40;2252.80
70593;DHT22;58294;42.988;20.338;2023-01-04T07:54:06;154.40;2252.80
70593;DHT22;58294;42.988;20.338;2023-01-04T07:56:33;154.50;2227.20
70593;DHT22;58294;42.988;20.338;2023-01-04T07:58:59;154.50;2201.60
70593;DHT22;58294;42.988;20.338;2023-01-04T08:01:26;154.50;2227.20
70593;DHT22;58294;42.988;20.338;2023-01-04T08:03:52;154.50;2227.20
70593;DHT22;58294;42.988;20.338;2023-01-04T08:06:19;179.20;2227.20
70593;DHT22;58294;42.988;20.338;2023-01-04T08:08:46;179.30;2252.80
70593;DHT22;58294;42.988;20.338;2023-01-04T08:11:15;179.50;2252.80
70593;DHT22;58294;42.988;20.338;2023-01-04T08:13:41;179.60;2252.80
70593;DHT22;58294;42.988;20.338;2023-01-04T08:16:08;179.70;2252.80
70593;DHT22;58294;42.988;20.338;2023-01-04T08:18:42;179.70;2252.80
70593;DHT22;58294;42.988;20.338;2023-01-04T08:21:08;179.90;2252.80
70593;DHT22;58294;42.988;20.338;2023-01-04T08:23:36;180.10;2252.80
70593;DHT22;58294;42.988;20.338;2023-01-04T08:26:10;180.10;2252.80
70593;DHT22;58294;42.988;20.338;2023-01-04T08:28:37;204.80;2252.80
70593;DHT22;58294;42.988;20.338;2023-01-04T08:31:05;204.80;2252.80
70593;DHT22;58294;42.988;20.338;2023-01-04T08:33:31;204.90;2252.80
70593;DHT22;58294;42.988;20.338;2023-01-04T08:36:11;205.00;2252.80
70593;DHT22;58294;42.988;20.338;2023-01-04T08:38:37;205.00;2252.80
70593;DHT22;58294;42.988;20.338;2023-01-04T08:41:05;205.10;2252.80
70593;DHT22;58294;42.988;20.338;2023-01-04T08:43:31;205.20;2252.80
70593;DHT22;58294;42.988;20.338;2023-01-04T08:45:57;205.20;2252.80
70593;DHT22;58294;42.988;20.338;2023-01-04T08:48:22;205.40;2252.80
70593;DHT22;58294;42.988;20.338;2023-01-04T08:50:48;205.50;2252.80
70593;DHT22;58294;42.988;20.338;2023-01-04T08:53:14;205.60;2252.80
70593;DHT22;58294;42.988;20.338;2023-01-04T09:00:32;230.60;2201.60
70593;DHT22;58294;42.988;20.338;2023-01-04T09:02:58;230.60;2252.80
70593;DHT22;58294;42.988;20.338;2023-01-04T09:07:50;230.70;2150.40
70593;DHT22;58294;42.988;20.338;2023-01-04T09:10:17;230.50;2150.40
70593;DHT22;58294;42.988;20.338;2023-01-04T09:12:42;230.50;2150.40
70593;DHT22;58294;42.988;20.338;2023-01-04T09:15:10;230.50;2201.60
70593;DHT22;58294;42.988;20.338;2023-01-04T09:17:36;230.50;2252.80
70593;DHT22;58294;42.988;20.338;2023-01-04T09:20:01;230.70;2252.80
70593;DHT22;58294;42.988;20.338;2023-01-04T09:22:29;230.70;2227.20
70593;DHT22;58294;42.988;20.338;2023-01-04T09:24:55;230.80;2176.00
70593;DHT22;58294;42.988;20.338;2023-01-04T09:27:21;230.80;2227.20
70593;DHT22;58294;42.988;20.338;2023-01-04T09:29:46;230.90;2252.80
70593;DHT22;58294;42.988;20.338;2023-01-04T09:32:12;231.00;2252.80
70593;DHT22;58294;42.988;20.338;2023-01-04T09:34:38;231.10;2252.80
70593;DHT22;58294;42.988;20.338;2023-01-04T09:37:04;231.10;2201.60
70593;DHT22;58294;42.988;20.338;2023-01-04T09:39:30;231.20;2252.80
70593;DHT22;58294;42.988;20.338;2023-01-04T09:41:57;231.30;2227.20
70593;DHT22;58294;42.988;20.338;2023-01-04T09:44:50;256.00;2227.20
70593;DHT22;58294;42.988;20.338;2023-01-04T09:47:23;256.10;2201.60
70593;DHT22;58294;42.988;20.338;2023-01-04T09:49:56;256.10;2150.40
70593;DHT22;58294;42.988;20.338;2023-01-04T09:53:01;256.10;2176.00
70593;DHT22;58294;42.988;20.338;2023-01-04T09:55:44;256.20;2150.40
70593;DHT22;58294;42.988;20.338;2023-01-04T09:58:37;256.20;2150.40
70593;DHT22;58294;42.988;20.338;2023-01-04T10:01:21;256.20;2124.80
70593;DHT22;58294;42.988;20.338;2023-01-04T10:06:37;256.20;2124.80
70593;DHT22;58294;42.988;20.338;2023-01-04T10:09:09;256.30;2150.40
70593;DHT22;58294;42.988;20.338;2023-01-04T10:19:41;256.30;2124.80
70593;DHT22;58294;42.988;20.338;2023-01-04T10:28:07;256.20;2048.00
70593;DHT22;58294;42.988;20.338;2023-01-04T10:30:45;256.20;2099.20
70593;DHT22;58294;42.988;20.338;2023-01-04T10:33:31;256.20;2099.20
70593;DHT22;58294;42.988;20.338;2023-01-04T10:35:59;256.20;2099.20
70593;DHT22;58294;42.988;20.338;2023-01-04T10:38:33;256.20;2099.20
70593;DHT22;58294;42.988;20.338;2023-01-04T10:41:09;256.20;2150.40
70593;DHT22;58294;42.988;20.338;2023-01-04T10:43:45;256.30;2150.40
70593;DHT22;58294;42.988;20.338;2023-01-04T10:46:25;256.30;2099.20
70593;DHT22;58294;42.988;20.338;2023-01-04T10:49:22;256.30;2099.20
70593;DHT22;58294;42.988;20.338;2023-01-04T10:51:57;256.30;2124.80
70593;DHT22;58294;42.988;20.338;2023-01-04T10:57:11;256.50;2124.80
70593;DHT22;58294;42.988;20.338;2023-01-04T11:05:17;256.60;2124.80
70593;DHT22;58294;42.988;20.338;2023-01-04T11:07:52;256.60;2124.80
70593;DHT22;58294;42.988;20.338;2023-01-04T11:10:26;256.70;2099.20
70593;DHT22;58294;42.988;20.338;2023-01-04T11:12:53;256.70;2099.20
70593;DHT22;58294;42.988;20.338;2023-01-04T11:15:19;256.70;2073.60
70593;DHT22;58294;42.988;20.338;2023-01-04T11:17:46;256.70;2099.20
70593;DHT22;58294;42.988;20.338;2023-01-04T11:20:13;256.70;2073.60
70593;DHT22;58294;42.988;20.338;2023-01-04T11:22:56;256.80;2099.20
70593;DHT22;58294;42.988;20.338;2023-01-04T11:25:23;256.80;2099.20
70593;DHT22;58294;42.988;20.338;2023-01-04T11:28:14;256.80;2073.60
70593;DHT22;58294;42.988;20.338;2023-01-04T11:31:08;256.80;2099.20
70593;DHT22;58294;42.988;20.338;2023-01-04T11:34:09;256.90;2099.20
70593;DHT22;58294;42.988;20.338;2023-01-04T11:36:42;256.90;2099.20
70593;DHT22;58294;42.988;20.338;2023-01-04T11:39:20;256.90;2073.60
70593;DHT22;58294;42.988;20.338;2023-01-04T11:41:57;256.90;2073.60
70593;DHT22;58294;42.988;20.338;2023-01-04T11:44:25;256.90;2073.60
70593;DHT22;58294;42.988;20.338;2023-01-04T11:49:37;256.90;2073.60
70593;DHT22;58294;42.988;20.338;2023-01-04T11:52:04;256.90;2073.60
70593;DHT22;58294;42.988;20.338;2023-01-04T11:54:30;256.80;2022.40
70593;DHT22;58294;42.988;20.338;2023-01-04T11:57:06;256.80;2073.60
70593;DHT22;58294;42.988;20.338;2023-01-04T11:59:34;256.80;2073.60
70593;DHT22;58294;42.988;20.338;2023-01-04T12:04:42;256.90;2099.20
70593;DHT22;58294;42.988;20.338;2023-01-04T12:07:34;281.60;2124.80
70593;DHT22;58294;42.988;20.338;2023-01-04T12:10:06;281.60;2124.80
70593;DHT22;58294;42.988;20.338;2023-01-04T12:12:38;281.60;2124.80
70593;DHT22;58294;42.988;20.338;2023-01-04T12:15:33;281.60;2124.80
70593;DHT22;58294;42.988;20.338;2023-01-04T12:18:09;281.70;2150.40
70593;DHT22;58294;42.988;20.338;2023-01-04T12:20:37;281.80;2124.80
70593;DHT22;58294;42.988;20.338;2023-01-04T12:23:03;281.80;2124.80
70593;DHT22;58294;42.988;20.338;2023-01-04T12:25:40;281.80;2073.60
70593;DHT22;58294;42.988;20.338;2023-01-04T12:30:54;281.70;2073.60
70593;DHT22;58294;42.988;20.338;2023-01-04T12:36:02;281.60;2124.80
70593;DHT22;58294;42.988;20.338;2023-01-04T12:41:21;281.80;2176.00
70593;DHT22;58294;42.988;20.338;2023-01-04T12:43:47;281.90;2150.40
70593;DHT22;58294;42.988;20.338;2023-01-04T13:02:25;282.20;2150.40
70593;DHT22;58294;42.988;20.338;2023-01-04T13:04:54;282.20;2124.80
70593;DHT22;58294;42.988;20.338;2023-01-04T13:07:57;282.20;2099.20
70593;DHT22;58294;42.988;20.338;2023-01-04T13:10:37;282.20;2099.20
70593;DHT22;58294;42.988;20.338;2023-01-04T13:18:35;282.10;2124.80
70593;DHT22;58294;42.988;20.338;2023-01-04T13:21:08;282.10;2099.20
70593;DHT22;58294;42.988;20.338;2023-01-04T13:23:36;282.10;2073.60
70593;DHT22;58294;42.988;20.338;2023-01-04T13:31:59;282.10;2099.20
70593;DHT22;58294;42.988;20.338;2023-01-04T13:34:29;282.10;2124.80
70593;DHT22;58294;42.988;20.338;2023-01-04T13:42:39;282.20;2124.80
70593;DHT22;58294;42.988;20.338;2023-01-04T13:45:09;282.20;2099.20
70593;DHT22;58294;42.988;20.338;2023-01-04T13:47:41;282.20;2099.20
70593;DHT22;58294;42.988;20.338;2023-01-04T13:50:33;282.10;2099.20
70593;DHT22;58294;42.988;20.338;2023-01-04T13:53:00;282.10;2073.60
70593;DHT22;58294;42.988;20.338;2023-01-04T13:55:27;282.10;2073.60
70593;DHT22;58294;42.988;20.338;2023-01-04T13:58:15;282.00;2073.60
70593;DHT22;58294;42.988;20.338;2023-01-04T14:00:49;281.90;2099.20
70593;DHT22;58294;42.988;20.338;2023-01-04T14:03:26;281.90;2124.80
70593;DHT22;58294;42.988;20.338;2023-01-04T14:05:53;282.00;2099.20
70593;DHT22;58294;42.988;20.338;2023-01-04T14:08:32;281.90;2099.20
70593;DHT22;58294;42.988;20.338;2023-01-04T14:10:58;281.90;2099.20
70593;DHT22;58294;42.988;20.338;2023-01-04T14:13:25;281.80;2073.60
70593;DHT22;58294;42.988;20.338;2023-01-04T14:16:11;281.80;2073.60
70593;DHT22;58294;42.988;20.338;2023-01-04T14:18:37;281.80;2124.80
70593;DHT22;58294;42.988;20.338;2023-01-04T14:21:03;281.80;2150.40
70593;DHT22;58294;42.988;20.338;2023-01-04T14:23:34;281.80;2150.40
70593;DHT22;58294;42.988;20.338;2023-01-04T14:26:01;281.90;2124.80
70593;DHT22;58294;42.988;20.338;2023-01-04T14:28:30;281.90;2099.20
70593;DHT22;58294;42.988;20.338;2023-01-04T14:33:33;281.90;2124.80
70593;DHT22;58294;42.988;20.338;2023-01-04T14:41:28;281.80;2099.20
70593;DHT22;58294;42.988;20.338;2023-01-04T14:46:24;281.80;2124.80
70593;DHT22;58294;42.988;20.338;2023-01-04T14:48:50;281.80;2124.80
70593;DHT22;58294;42.988;20.338;2023-01-04T14:51:19;281.80;2099.20
70593;DHT22;58294;42.988;20.338;2023-01-04T14:53:45;281.80;2124.80
70593;DHT22;58294;42.988;20.338;2023-01-04T14:56:13;281.80;2124.80
70593;DHT22;58294;42.988;20.338;2023-01-04T14:58:39;281.80;2124.80
70593;DHT22;58294;42.988;20.338;2023-01-04T15:01:04;281.80;2124.80
70593;DHT22;58294;42.988;20.338;2023-01-04T15:03:30;281.80;2124.80
70593;DHT22;58294;42.988;20.338;2023-01-04T15:05:56;281.80;2124.80
70593;DHT22;58294;42.988;20.338;2023-01-04T15:08:22;281.80;2124.80
70593;DHT22;58294;42.988;20.338;2023-01-04T15:10:48;281.70;2073.60
70593;DHT22;58294;42.988;20.338;2023-01-04T15:13:14;281.70;2099.20
70593;DHT22;58294;42.988;20.338;2023-01-04T15:15:40;281.70;2124.80
70593;DHT22;58294;42.988;20.338;2023-01-04T15:18:07;281.70;2124.80
70593;DHT22;58294;42.988;20.338;2023-01-04T15:20:33;281.70;2124.80
70593;DHT22;58294;42.988;20.338;2023-01-04T15:22:58;281.60;2099.20
70593;DHT22;58294;42.988;20.338;2023-01-04T15:25:24;281.60;2099.20
70593;DHT22;58294;42.988;20.338;2023-01-04T15:27:52;281.60;2124.80
70593;DHT22;58294;42.988;20.338;2023-01-04T15:30:18;256.90;2073.60
70593;DHT22;58294;42.988;20.338;2023-01-04T15:32:44;256.90;2073.60
70593;DHT22;58294;42.988;20.338;2023-01-04T15:35:10;256.90;2099.20
70593;DHT22;58294;42.988;20.338;2023-01-04T15:37:40;256.90;2099.20
70593;DHT22;58294;42.988;20.338;2023-01-04T15:40:06;256.90;2124.80
70593;DHT22;58294;42.988;20.338;2023-01-04T15:42:32;256.90;2099.20
70593;DHT22;58294;42.988;20.338;2023-01-04T15:45:16;256.80;2073.60
70593;DHT22;58294;42.988;20.338;2023-01-04T15:47:42;256.60;2073.60
70593;DHT22;58294;42.988;20.338;2023-01-04T15:50:08;256.60;2099.20
70593;DHT22;58294;42.988;20.338;2023-01-04T15:52:34;256.60;2099.20
70593;DHT22;58294;42.988;20.338;2023-01-04T15:54:59;256.60;2124.80
70593;DHT22;58294;42.988;20.338;2023-01-04T15:57:25;256.60;2099.20
70593;DHT22;58294;42.988;20.338;2023-01-04T15:59:51;256.60;2099.20
70593;DHT22;58294;42.988;20.338;2023-01-04T16:02:17;256.60;2099.20
70593;DHT22;58294;42.988;20.338;2023-01-04T16:04:42;256.60;2099.20
70593;DHT22;58294;42.988;20.338;2023-01-04T16:07:10;256.50;2048.00
70593;DHT22;58294;42.988;20.338;2023-01-04T16:09:36;256.50;2099.20
70593;DHT22;58294;42.988;20.338;2023-01-04T16:12:03;256.50;2124.80
70593;DHT22;58294;42.988;20.338;2023-01-04T16:14:47;256.50;2099.20
70593;DHT22;58294;42.988;20.338;2023-01-04T16:17:12;256.50;2099.20
70593;DHT22;58294;42.988;20.338;2023-01-04T16:19:38;256.50;2124.80
70593;DHT22;58294;42.988;20.338;2023-01-04T16:22:04;256.50;2124.80
70593;DHT22;58294;42.988;20.338;2023-01-04T16:24:30;256.40;2073.60
70593;DHT22;58294;42.988;20.338;2023-01-04T16:26:55;256.40;2099.20
70593;DHT22;58294;42.988;20.338;2023-01-04T16:29:21;256.40;2124.80
70593;DHT22;58294;42.988;20.338;2023-01-04T16:31:48;256.40;2124.80
70593;DHT22;58294;42.988;20.338;2023-01-04T16:34:14;256.30;2099.20
70593;DHT22;58294;42.988;20.338;2023-01-04T16:36:40;256.30;2124.80
70593;DHT22;58294;42.988;20.338;2023-01-04T16:39:06;256.30;2124.80
70593;DHT22;58294;42.988;20.338;2023-01-04T16:41:32;256.30;2124.80
70593;DHT22;58294;42.988;20.338;2023-01-04T16:44:03;256.30;2124.80
70593;DHT22;58294;42.988;20.338;2023-01-04T16:46:36;256.20;2099.20
70593;DHT22;58294;42.988;20.338;2023-01-04T16:49:04;256.20;2124.80
70593;DHT22;58294;42.988;20.338;2023-01-04T16:51:33;256.20;2124.80
70593;DHT22;58294;42.988;20.338;2023-01-04T16:54:01;256.10;2099.20
70593;DHT22;58294;42.988;20.338;2023-01-04T16:56:28;256.10;2124.80
70593;DHT22;58294;42.988;20.338;2023-01-04T16:58:54;256.10;2099.20
70593;DHT22;58294;42.988;20.338;2023-01-04T17:01:27;256.00;2099.20